Time;durP1;ratioP1;P1;durP2;ratioP2;P2;SDS_P1;SDS_P2;PMS_P1;PMS_P2;Temp;Humidity;BMP_temperature;BMP_pressure;BME280_temperature;BME280_humidity;BME280_pressure;Samples;Min_cycle;Max_cycle;Signal;HPM_P1;HPM_P2
2023/08/21 00:01:51;;;;;;;19.30;18.30;;;26.00;99.90;;;;;;4910259;29;20553;-85
2023/08/21 00:04:22;;;;;;;20.87;19.70;;;26.00;99.90;;;;;;4906500;29;20493;-89
2023/08/21 00:06:59;;;;;;;20.30;19.40;;;26.00;99.90;;;;;;4911343;29;20447;-86
2023/08/21 00:09:35;;;;;;;19.77;18.77;;;25.90;99.90;;;;;;4907171;29;20514;-87
2023/08/21 00:12:04;;;;;;;20.50;19.20;;;25.90;99.90;;;;;;4908804;29;20524;-86
2023/08/21 00:14:32;;;;;;;19.47;18.67;;;25.90;99.90;;;;;;4907874;29;20482;-86
2023/08/21 00:17:01;;;;;;;19.60;18.67;;;25.80;99.90;;;;;;4909312;29;20751;-86
2023/08/21 00:19:40;;;;;;;20.20;19.20;;;25.90;99.90;;;;;;4908933;29;20466;-88
2023/08/21 00:22:12;;;;;;;19.53;18.63;;;25.90;99.90;;;;;;4908823;29;20469;-86
2023/08/21 00:24:40;;;;;;;20.10;19.10;;;25.90;99.90;;;;;;4907226;29;20446;-85
2023/08/21 00:27:11;;;;;;;20.53;19.20;;;25.90;99.90;;;;;;4909490;29;20502;-87
2023/08/21 00:29:45;;;;;;;20.07;18.87;;;25.90;99.90;;;;;;4909166;29;20491;-87
2023/08/21 00:32:18;;;;;;;18.97;18.17;;;25.90;99.90;;;;;;4908039;29;20992;-87
2023/08/21 00:34:50;;;;;;;19.80;18.80;;;25.90;99.90;;;;;;4905022;29;20485;-86
2023/08/21 00:37:23;;;;;;;19.70;18.50;;;25.90;99.90;;;;;;4907472;29;20470;-87
2023/08/21 00:39:54;;;;;;;19.70;18.60;;;25.90;99.90;;;;;;4906100;29;20466;-89
2023/08/21 00:42:25;;;;;;;18.73;17.70;;;25.80;99.90;;;;;;4907082;29;20926;-86
2023/08/21 00:44:55;;;;;;;19.20;18.33;;;25.80;99.90;;;;;;4910542;29;20518;-85
2023/08/21 00:47:23;;;;;;;19.40;18.47;;;25.70;99.90;;;;;;4907227;29;20458;-86
2023/08/21 00:49:52;;;;;;;18.80;17.77;;;25.70;99.90;;;;;;4908981;29;20485;-86
2023/08/21 00:52:25;;;;;;;19.70;18.60;;;25.60;99.90;;;;;;4906520;29;20497;-85
2023/08/21 00:54:59;;;;;;;19.80;18.70;;;25.60;99.90;;;;;;4906996;29;20525;-86
2023/08/21 00:57:31;;;;;;;19.67;18.70;;;25.60;99.90;;;;;;4905167;29;20484;-89
2023/08/21 01:00:01;;;;;;;20.20;18.90;;;25.60;99.90;;;;;;4906283;29;20472;-86
2023/08/21 01:02:31;;;;;;;19.90;18.80;;;25.60;99.90;;;;;;4906070;29;20550;-85
2023/08/21 01:05:10;;;;;;;19.77;18.77;;;25.60;99.90;;;;;;4909810;29;20452;-85
2023/08/21 01:07:54;;;;;;;19.10;18.13;;;25.60;99.90;;;;;;4905531;29;20481;-87
2023/08/21 01:10:34;;;;;;;20.03;19.00;;;25.60;99.90;;;;;;4904982;29;20469;-86
2023/08/21 01:13:13;;;;;;;21.00;20.07;;;25.50;99.90;;;;;;4904862;29;20462;-90
2023/08/21 01:15:44;;;;;;;21.30;20.30;;;25.40;1.00;;;;;;4904839;29;20485;-85
2023/08/21 01:18:15;;;;;;;19.60;18.60;;;25.40;1.00;;;;;;4906800;29;20533;-85
2023/08/21 01:20:45;;;;;;;21.50;20.20;;;25.40;1.00;;;;;;4902787;29;20848;-87
2023/08/21 01:23:34;;;;;;;20.27;19.27;;;25.40;1.00;;;;;;4901897;29;20567;-85
2023/08/21 01:26:05;;;;;;;20.27;19.27;;;25.40;1.00;;;;;;4907021;29;20453;-86
2023/08/21 01:28:36;;;;;;;20.50;19.53;;;25.40;1.00;;;;;;4905876;29;20486;-86
2023/08/21 01:31:12;;;;;;;19.13;18.23;;;25.40;1.00;;;;;;4908337;29;20458;-85
2023/08/21 01:33:47;;;;;;;19.90;18.80;;;25.40;1.00;;;;;;4904698;29;20454;-89
2023/08/21 01:36:16;;;;;;;20.50;19.40;;;25.30;1.00;;;;;;4904916;29;20495;-87
2023/08/21 01:38:48;;;;;;;19.27;18.27;;;25.30;1.00;;;;;;4904021;29;20493;-89
2023/08/21 01:41:16;;;;;;;20.23;19.03;;;25.30;1.00;;;;;;4903110;29;20466;-86
2023/08/21 01:43:45;;;;;;;19.90;19.00;;;25.20;1.00;;;;;;4906046;29;20475;-87
2023/08/21 01:46:17;;;;;;;20.17;19.17;;;25.20;1.00;;;;;;4906188;29;20898;-86
2023/08/21 01:48:48;;;;;;;20.27;19.13;;;25.10;1.00;;;;;;4904400;29;20482;-87
2023/08/21 01:51:17;;;;;;;19.60;18.60;;;25.20;1.00;;;;;;4907668;29;20478;-88
2023/08/21 01:53:49;;;;;;;21.50;20.40;;;25.10;1.00;;;;;;4903502;29;20462;-85
2023/08/21 01:56:18;;;;;;;20.57;19.57;;;25.10;1.00;;;;;;4904108;29;20551;-86
2023/08/21 01:58:52;;;;;;;20.67;19.50;;;25.10;1.00;;;;;;4905640;29;20512;-85
2023/08/21 02:01:23;;;;;;;20.30;19.30;;;25.10;1.00;;;;;;4904893;29;20454;-86
2023/08/21 02:03:53;;;;;;;20.50;19.40;;;25.10;1.00;;;;;;4901707;29;20469;-85
2023/08/21 02:06:25;;;;;;;20.87;19.87;;;25.10;1.00;;;;;;4904915;29;20467;-86
2023/08/21 02:08:57;;;;;;;19.67;18.63;;;25.10;1.00;;;;;;4905787;29;20471;-85
2023/08/21 02:11:33;;;;;;;20.27;19.20;;;25.20;1.00;;;;;;4905023;29;20465;-89
2023/08/21 02:14:02;;;;;;;19.37;18.37;;;25.20;1.00;;;;;;4904183;29;20455;-87
2023/08/21 02:16:33;;;;;;;19.03;18.13;;;25.10;1.00;;;;;;4905240;29;20482;-86
2023/08/21 02:19:06;;;;;;;20.13;19.13;;;25.20;1.00;;;;;;4906772;29;20485;-87
2023/08/21 02:21:40;;;;;;;20.20;19.23;;;25.10;1.00;;;;;;4905657;29;20466;-86
2023/08/21 02:24:11;;;;;;;19.30;18.50;;;25.10;1.00;;;;;;4903029;29;20828;-86
2023/08/21 02:26:46;;;;;;;19.43;18.57;;;25.10;1.00;;;;;;4904176;29;20505;-87
2023/08/21 02:29:20;;;;;;;19.57;18.60;;;25.00;18.70;;;;;;4906328;29;20784;-88
2023/08/21 02:31:52;;;;;;;19.83;18.80;;;24.90;95.40;;;;;;4905646;29;20469;-86
2023/08/21 02:34:23;;;;;;;20.70;19.70;;;24.90;99.90;;;;;;4905700;29;20743;-85
2023/08/21 02:36:53;;;;;;;19.33;18.40;;;24.80;99.90;;;;;;4905660;29;20482;-90
2023/08/21 02:39:29;;;;;;;20.83;19.53;;;24.80;99.90;;;;;;4904056;29;20470;-88
2023/08/21 02:42:06;;;;;;;20.30;19.30;;;24.80;99.90;;;;;;4903900;29;20473;-85
2023/08/21 02:44:34;;;;;;;19.60;18.60;;;24.80;99.90;;;;;;4904988;29;20462;-85
2023/08/21 02:47:06;;;;;;;20.13;19.13;;;24.70;99.90;;;;;;4907165;29;20457;-86
2023/08/21 02:49:36;;;;;;;20.27;19.27;;;24.70;99.90;;;;;;4905116;29;20511;-88
2023/08/21 02:52:05;;;;;;;19.50;18.60;;;24.70;99.90;;;;;;4904866;29;20454;-86
2023/08/21 02:54:39;;;;;;;21.00;19.73;;;24.70;99.90;;;;;;4903285;29;20471;-86
2023/08/21 02:57:14;;;;;;;19.90;19.00;;;24.70;99.90;;;;;;4908155;29;20486;-86
2023/08/21 02:59:45;;;;;;;19.87;18.97;;;24.70;99.90;;;;;;4907104;29;20461;-86
2023/08/21 03:02:14;;;;;;;20.67;19.43;;;24.70;99.90;;;;;;4910243;29;20457;-87
2023/08/21 03:04:43;;;;;;;20.30;19.20;;;24.60;99.90;;;;;;4904604;29;20462;-84
2023/08/21 03:07:12;;;;;;;19.43;18.43;;;24.60;99.90;;;;;;4910534;29;20446;-86
2023/08/21 03:09:51;;;;;;;19.73;18.70;;;24.60;99.90;;;;;;4920732;29;20449;-85
2023/08/21 03:12:20;;;;;;;20.23;19.23;;;24.60;99.90;;;;;;4905297;29;20565;-86
2023/08/21 03:14:51;;;;;;;20.20;19.00;;;24.60;99.90;;;;;;4906135;29;20496;-85
2023/08/21 03:17:36;;;;;;;19.87;18.87;;;24.50;99.90;;;;;;4906341;29;20499;-86
2023/08/21 03:20:05;;;;;;;18.93;18.03;;;24.50;99.90;;;;;;4907315;29;20449;-86
2023/08/21 03:22:44;;;;;;;19.10;18.30;;;24.50;99.90;;;;;;4903737;29;20497;-89
2023/08/21 03:25:14;;;;;;;19.80;18.90;;;24.50;99.90;;;;;;4905878;29;20686;-88
2023/08/21 03:27:49;;;;;;;19.07;18.17;;;24.40;99.90;;;;;;4906751;29;20480;-86
2023/08/21 03:30:21;;;;;;;20.77;19.70;;;24.40;99.90;;;;;;4904107;29;20715;-86
2023/08/21 03:32:55;;;;;;;19.50;18.50;;;24.40;99.90;;;;;;4907218;29;20446;-85
2023/08/21 03:35:26;;;;;;;20.37;19.17;;;24.40;99.90;;;;;;4904307;29;20462;-85
2023/08/21 03:37:56;;;;;;;19.70;18.40;;;24.30;99.90;;;;;;4904474;29;20485;-85
2023/08/21 03:40:29;;;;;;;19.00;18.20;;;24.40;99.90;;;;;;4903838;29;20948;-87
2023/08/21 03:42:59;;;;;;;19.50;18.27;;;24.30;99.90;;;;;;4905485;29;20450;-87
2023/08/21 03:45:36;;;;;;;20.03;19.03;;;24.40;99.90;;;;;;4911964;29;20485;-85
2023/08/21 03:48:08;;;;;;;19.57;18.60;;;24.40;99.90;;;;;;4909324;29;20467;-85
2023/08/21 03:50:42;;;;;;;19.40;18.50;;;24.40;99.90;;;;;;4924087;29;20707;-85
2023/08/21 03:53:19;;;;;;;19.60;18.60;;;24.40;99.90;;;;;;4906814;29;20441;-85
2023/08/21 03:55:53;;;;;;;19.80;18.87;;;24.30;99.90;;;;;;4907249;29;20462;-85
2023/08/21 03:58:29;;;;;;;20.33;19.33;;;24.30;99.90;;;;;;4905405;29;20564;-86
2023/08/21 04:01:05;;;;;;;20.50;19.20;;;24.30;99.90;;;;;;4910644;29;20480;-87
2023/08/21 04:03:34;;;;;;;21.20;19.97;;;24.30;99.90;;;;;;4910913;29;21000;-86
2023/08/21 04:06:10;;;;;;;20.63;19.70;;;24.30;1.00;;;;;;4904243;29;20497;-87
2023/08/21 04:08:44;;;;;;;20.60;19.70;;;24.20;1.00;;;;;;4906875;29;20478;-85
2023/08/21 04:11:21;;;;;;;21.17;20.17;;;24.20;1.00;;;;;;4904160;29;20803;-85
2023/08/21 04:13:58;;;;;;;21.47;20.37;;;24.20;1.00;;;;;;4905736;29;20552;-88
2023/08/21 04:16:27;;;;;;;21.20;20.20;;;24.20;1.00;;;;;;4906989;29;20456;-87
2023/08/21 04:19:08;;;;;;;20.93;19.67;;;24.20;1.00;;;;;;4909611;29;20490;-87
2023/08/21 04:21:38;;;;;;;21.13;20.20;;;24.20;99.90;;;;;;4909852;29;20972;-85
2023/08/21 04:24:07;;;;;;;22.00;20.80;;;24.10;1.00;;;;;;4906397;29;20470;-88
2023/08/21 04:26:48;;;;;;;20.27;19.30;;;24.10;1.00;;;;;;4903787;29;20442;-86
2023/08/21 04:29:23;;;;;;;20.70;19.60;;;24.10;1.00;;;;;;4903772;29;20486;-86
2023/08/21 04:31:51;;;;;;;21.03;19.93;;;24.10;1.00;;;;;;4921383;29;20454;-88
2023/08/21 04:34:25;;;;;;;21.73;20.63;;;24.10;1.00;;;;;;4906498;29;20451;-87
2023/08/21 04:36:54;;;;;;;22.00;20.73;;;24.10;1.00;;;;;;4905179;29;20533;-88
2023/08/21 04:39:30;;;;;;;21.53;20.23;;;24.00;1.00;;;;;;4904876;29;20543;-85
2023/08/21 04:42:05;;;;;;;21.40;20.23;;;24.00;1.00;;;;;;4906262;29;20800;-86
2023/08/21 04:44:34;;;;;;;21.80;20.70;;;24.00;1.00;;;;;;4906805;29;20477;-85
2023/08/21 04:47:21;;;;;;;21.37;20.27;;;24.00;1.00;;;;;;4906836;29;20482;-85
2023/08/21 04:49:50;;;;;;;22.13;21.03;;;24.00;1.00;;;;;;4905068;29;20553;-86
2023/08/21 04:52:21;;;;;;;21.37;20.37;;;24.00;1.00;;;;;;4906898;29;20884;-85
2023/08/21 04:54:52;;;;;;;22.83;21.60;;;24.00;1.00;;;;;;4908223;29;20971;-85
2023/08/21 04:57:25;;;;;;;21.33;20.23;;;23.90;1.00;;;;;;4907002;29;20596;-85
2023/08/21 04:59:53;;;;;;;23.27;21.87;;;24.00;1.00;;;;;;4920637;29;20506;-85
2023/08/21 05:02:23;;;;;;;22.03;20.63;;;24.00;1.00;;;;;;4906321;29;20485;-86
2023/08/21 05:05:00;;;;;;;20.93;19.77;;;24.00;1.00;;;;;;4905909;29;20466;-86
2023/08/21 05:07:28;;;;;;;22.10;20.73;;;24.00;1.00;;;;;;4909335;29;20973;-85
2023/08/21 05:10:01;;;;;;;22.50;21.30;;;24.10;1.00;;;;;;4906754;29;20554;-86
2023/08/21 05:12:36;;;;;;;21.50;20.40;;;24.10;1.00;;;;;;4907399;29;20542;-87
2023/08/21 05:15:06;;;;;;;21.23;19.93;;;24.10;1.00;;;;;;4903884;29;20554;-85
2023/08/21 05:17:43;;;;;;;22.47;21.33;;;24.10;99.90;;;;;;4907917;29;20486;-85
2023/08/21 05:20:18;;;;;;;22.50;21.13;;;24.20;1.00;;;;;;4906119;29;20549;-85
2023/08/21 05:22:49;;;;;;;22.27;21.23;;;24.10;1.00;;;;;;4908855;29;20450;-85
2023/08/21 05:25:20;;;;;;;23.10;21.80;;;24.20;99.90;;;;;;4901647;29;20517;-86
2023/08/21 05:27:56;;;;;;;22.83;21.73;;;24.20;99.90;;;;;;4908207;29;20477;-85
2023/08/21 05:30:27;;;;;;;22.73;21.63;;;24.30;99.90;;;;;;4907203;29;20450;-85
2023/08/21 05:32:58;;;;;;;23.50;22.20;;;24.30;99.90;;;;;;4907158;29;20446;-86
2023/08/21 05:35:29;;;;;;;23.40;22.10;;;24.30;99.90;;;;;;4906946;29;20470;-87
2023/08/21 05:38:00;;;;;;;23.53;22.10;;;24.30;99.90;;;;;;4909636;29;20477;-86
2023/08/21 05:40:35;;;;;;;23.27;21.77;;;24.30;99.90;;;;;;4902763;29;20445;-87
2023/08/21 05:43:08;;;;;;;22.37;21.23;;;24.30;99.90;;;;;;4907750;29;20466;-88
2023/08/21 05:45:40;;;;;;;22.83;21.63;;;24.30;99.90;;;;;;4903826;29;20471;-86
2023/08/21 05:48:10;;;;;;;22.20;21.10;;;24.40;99.90;;;;;;4902237;29;20523;-86
2023/08/21 05:50:42;;;;;;;22.40;21.10;;;24.40;99.90;;;;;;4909835;29;20474;-85
2023/08/21 05:53:16;;;;;;;23.27;22.00;;;24.40;99.90;;;;;;4904773;29;20466;-85
2023/08/21 05:55:45;;;;;;;23.10;21.70;;;24.40;99.90;;;;;;4906236;29;20451;-87
2023/08/21 05:58:16;;;;;;;21.83;20.53;;;24.50;99.90;;;;;;4906190;29;20497;-85
2023/08/21 06:00:48;;;;;;;23.30;21.90;;;24.60;99.90;;;;;;4910149;29;20455;-85
2023/08/21 06:03:17;;;;;;;24.77;23.30;;;24.70;99.90;;;;;;4907097;29;20464;-88
2023/08/21 06:05:50;;;;;;;23.93;22.17;;;24.70;99.90;;;;;;4905304;29;20458;-86
2023/08/21 06:08:26;;;;;;;23.87;22.40;;;24.80;1.00;;;;;;4903600;29;20508;-87
2023/08/21 06:10:55;;;;;;;23.63;22.30;;;24.90;1.00;;;;;;4899211;29;20472;-86
2023/08/21 06:13:28;;;;;;;23.30;22.00;;;25.00;1.00;;;;;;4901198;29;20469;-86
2023/08/21 06:16:04;;;;;;;23.90;22.70;;;25.20;1.00;;;;;;4908443;29;20446;-86
2023/08/21 06:18:36;;;;;;;25.10;23.60;;;25.40;1.00;;;;;;4908137;29;20496;-85
2023/08/21 06:21:06;;;;;;;24.73;23.20;;;25.60;99.90;;;;;;4908579;29;20479;-89
2023/08/21 06:23:39;;;;;;;23.13;21.93;;;25.70;99.90;;;;;;4901315;29;20983;-86
2023/08/21 06:26:13;;;;;;;24.07;22.80;;;25.90;99.90;;;;;;4902022;29;20549;-89
2023/08/21 06:28:48;;;;;;;25.03;23.63;;;26.10;99.90;;;;;;4906126;28;20482;-85
2023/08/21 06:31:18;;;;;;;24.10;22.60;;;26.30;99.90;;;;;;4904700;29;20840;-85
2023/08/21 06:33:52;;;;;;;23.37;21.97;;;26.40;90.20;;;;;;4905889;29;20943;-87
2023/08/21 06:36:20;;;;;;;24.60;23.13;;;26.60;13.40;;;;;;4906776;29;20495;-89
2023/08/21 06:38:55;;;;;;;23.03;21.67;;;26.80;1.00;;;;;;4903855;29;21077;-87
2023/08/21 06:41:27;;;;;;;23.97;22.77;;;26.90;1.00;;;;;;4903548;29;20458;-85
2023/08/21 06:44:04;;;;;;;22.43;21.13;;;27.10;1.00;;;;;;4906845;29;20474;-86
2023/08/21 06:46:32;;;;;;;23.47;21.73;;;27.20;1.00;;;;;;4904726;29;20470;-85
2023/08/21 06:49:05;;;;;;;24.10;22.50;;;27.30;1.00;;;;;;4907918;29;20482;-86
2023/08/21 06:51:38;;;;;;;23.60;22.30;;;27.50;1.00;;;;;;4902975;29;20459;-86
2023/08/21 06:54:15;;;;;;;23.80;22.40;;;27.60;1.00;;;;;;4904377;29;20490;-87
2023/08/21 06:56:43;;;;;;;23.83;22.33;;;27.70;1.00;;;;;;4903148;29;20480;-85
2023/08/21 06:59:15;;;;;;;23.47;21.87;;;27.90;1.00;;;;;;4902705;29;20492;-86
2023/08/21 07:01:46;;;;;;;22.53;21.30;;;28.00;1.00;;;;;;4905776;29;20464;-86
2023/08/21 07:04:20;;;;;;;22.43;21.23;;;28.00;1.00;;;;;;4903164;29;20455;-86
2023/08/21 07:06:49;;;;;;;22.77;21.07;;;28.10;1.00;;;;;;4901739;29;20458;-87
2023/08/21 07:09:21;;;;;;;21.63;20.50;;;28.20;1.00;;;;;;4902937;29;20510;-87
2023/08/21 07:11:55;;;;;;;22.67;21.40;;;28.30;1.00;;;;;;4907930;29;20466;-86
2023/08/21 07:14:25;;;;;;;21.43;20.10;;;28.30;1.00;;;;;;4904201;29;20462;-87
2023/08/21 07:16:58;;;;;;;21.50;19.97;;;28.40;1.00;;;;;;4901988;29;20826;-87
2023/08/21 07:19:31;;;;;;;22.27;20.47;;;28.40;99.90;;;;;;4905751;29;20481;-86
2023/08/21 07:22:01;;;;;;;20.87;19.77;;;28.50;99.90;;;;;;4906444;29;20549;-87
2023/08/21 07:24:32;;;;;;;20.67;19.27;;;28.60;99.90;;;;;;4907295;29;20493;-89
2023/08/21 07:27:02;;;;;;;20.63;19.63;;;28.60;99.90;;;;;;4906601;29;20465;-86
2023/08/21 07:29:44;;;;;;;21.20;19.80;;;28.50;99.90;;;;;;4906362;29;20521;-86
2023/08/21 07:32:26;;;;;;;20.20;19.30;;;28.60;99.90;;;;;;4904807;29;20478;-86
2023/08/21 07:34:56;;;;;;;22.07;20.43;;;28.60;99.90;;;;;;4909959;29;20455;-89
2023/08/21 07:37:25;;;;;;;20.80;19.60;;;28.60;99.90;;;;;;4906247;29;21027;-85
2023/08/21 07:39:58;;;;;;;20.67;19.57;;;28.60;99.90;;;;;;4904975;29;20485;-86
2023/08/21 07:42:39;;;;;;;20.93;19.67;;;28.50;99.90;;;;;;4907147;29;20473;-85
2023/08/21 07:45:10;;;;;;;21.73;20.20;;;28.60;99.90;;;;;;4903775;29;20544;-89
2023/08/21 07:47:49;;;;;;;21.30;20.20;;;28.60;99.90;;;;;;4907843;29;20465;-86
2023/08/21 07:50:51;;;;;;;20.83;19.63;;;28.70;99.90;;;;;;4904987;29;20832;-86
2023/08/21 07:53:24;;;;;;;21.00;19.90;;;28.70;99.90;;;;;;4907342;29;20983;-86
2023/08/21 07:55:54;;;;;;;22.60;20.90;;;28.70;99.90;;;;;;4908355;29;20593;-88
2023/08/21 07:58:30;;;;;;;21.13;20.03;;;28.70;99.90;;;;;;4907220;29;21075;-86
2023/08/21 08:01:01;;;;;;;22.53;21.23;;;28.70;99.90;;;;;;4907440;29;20489;-88
2023/08/21 08:03:37;;;;;;;21.67;20.50;;;28.70;99.90;;;;;;4907556;29;20445;-85
2023/08/21 08:06:11;;;;;;;22.50;20.90;;;28.70;99.90;;;;;;4909991;29;20949;-86
2023/08/21 08:08:42;;;;;;;22.43;20.93;;;28.90;99.90;;;;;;4908605;29;21030;-87
2023/08/21 08:11:16;;;;;;;22.10;20.60;;;28.90;99.90;;;;;;4907896;29;20449;-90
2023/08/21 08:13:46;;;;;;;21.93;20.90;;;29.00;99.90;;;;;;4912302;29;20466;-87
2023/08/21 08:16:18;;;;;;;22.90;21.60;;;29.10;99.90;;;;;;4904788;29;20943;-86
2023/08/21 08:18:52;;;;;;;21.10;20.03;;;29.20;99.90;;;;;;4908525;29;20521;-86
2023/08/21 08:21:24;;;;;;;21.07;19.70;;;29.20;99.90;;;;;;4904195;29;20470;-86
2023/08/21 08:23:53;;;;;;;21.13;19.83;;;29.20;99.90;;;;;;4909901;29;20462;-86
2023/08/21 08:26:27;;;;;;;21.53;20.43;;;29.20;99.90;;;;;;4906181;29;20466;-86
2023/08/21 08:29:03;;;;;;;20.70;19.60;;;29.20;99.90;;;;;;4911128;29;20470;-86
2023/08/21 08:31:38;;;;;;;20.10;19.30;;;29.30;99.90;;;;;;4905192;29;20462;-86
2023/08/21 08:34:20;;;;;;;20.07;19.17;;;29.30;99.90;;;;;;4908539;29;20545;-88
2023/08/21 08:36:51;;;;;;;20.37;19.37;;;29.40;99.90;;;;;;4909921;29;20964;-86
2023/08/21 08:39:23;;;;;;;20.40;19.50;;;29.50;99.90;;;;;;4905614;29;20521;-87
2023/08/21 08:41:59;;;;;;;20.10;19.00;;;29.60;99.90;;;;;;4906926;29;20569;-86
2023/08/21 08:44:38;;;;;;;21.03;19.80;;;29.60;99.90;;;;;;4923310;29;20477;-86
2023/08/21 08:47:11;;;;;;;20.20;19.23;;;29.70;99.90;;;;;;4908721;29;20470;-86
2023/08/21 08:49:43;;;;;;;18.30;17.60;;;29.70;99.90;;;;;;4907200;29;20506;-87
2023/08/21 08:52:13;;;;;;;17.90;17.20;;;29.80;99.90;;;;;;4911193;29;20468;-87
2023/08/21 08:54:45;;;;;;;19.13;18.13;;;29.80;99.90;;;;;;4906588;29;20459;-87
2023/08/21 08:57:14;;;;;;;18.47;17.77;;;29.90;99.90;;;;;;4906416;29;20462;-85
2023/08/21 08:59:44;;;;;;;19.67;18.67;;;29.90;99.90;;;;;;4907140;29;20522;-86
2023/08/21 09:02:18;;;;;;;20.33;19.43;;;29.90;99.90;;;;;;4904422;29;20468;-87
2023/08/21 09:04:49;;;;;;;20.20;19.03;;;30.00;99.90;;;;;;4907514;29;20462;-88
2023/08/21 09:07:24;;;;;;;19.80;19.00;;;30.00;99.90;;;;;;4904317;29;20494;-87
2023/08/21 09:09:59;;;;;;;20.80;19.63;;;30.00;99.90;;;;;;4907858;29;20441;-87
2023/08/21 09:12:34;;;;;;;19.90;18.90;;;30.00;99.90;;;;;;4906893;29;20544;-87
2023/08/21 09:15:09;;;;;;;20.87;19.87;;;30.00;99.90;;;;;;4906497;29;20458;-87
2023/08/21 09:17:45;;;;;;;19.40;18.50;;;30.00;99.90;;;;;;4903352;29;20489;-88
2023/08/21 09:20:20;;;;;;;19.23;18.33;;;30.10;99.90;;;;;;4905155;29;20855;-86
2023/08/21 09:22:56;;;;;;;20.07;19.17;;;30.10;99.90;;;;;;4904405;29;20541;-86
2023/08/21 09:25:28;;;;;;;19.17;18.27;;;30.20;99.90;;;;;;4904811;29;20574;-88
2023/08/21 09:27:59;;;;;;;18.77;18.00;;;30.30;99.90;;;;;;4907639;29;20497;-85
2023/08/21 09:30:34;;;;;;;20.73;19.83;;;30.50;99.90;;;;;;4905564;29;20451;-87
2023/08/21 09:33:10;;;;;;;20.17;19.23;;;30.50;99.90;;;;;;4904033;29;20458;-88
2023/08/21 09:35:39;;;;;;;19.27;18.40;;;30.50;99.90;;;;;;4902312;29;20473;-88
2023/08/21 09:38:14;;;;;;;20.53;19.33;;;30.60;99.90;;;;;;4906146;29;20485;-86
2023/08/21 09:40:46;;;;;;;20.87;19.90;;;30.50;99.90;;;;;;4904333;29;20952;-86
2023/08/21 09:43:17;;;;;;;20.07;19.00;;;30.50;99.90;;;;;;4903940;29;20458;-86
2023/08/21 09:45:48;;;;;;;19.57;18.67;;;30.50;99.90;;;;;;4903978;29;20964;-86
2023/08/21 09:48:30;;;;;;;19.90;19.00;;;30.50;99.90;;;;;;4904930;29;20478;-89
2023/08/21 09:51:04;;;;;;;20.17;19.27;;;30.50;99.90;;;;;;4905291;29;20462;-87
2023/08/21 09:53:42;;;;;;;18.90;18.10;;;30.50;99.90;;;;;;4902824;29;20465;-87
2023/08/21 09:56:12;;;;;;;21.40;20.30;;;30.40;99.90;;;;;;4902954;29;20481;-86
2023/08/21 09:58:41;;;;;;;20.60;19.60;;;30.40;99.90;;;;;;4907433;29;20999;-86
2023/08/21 10:01:14;;;;;;;21.73;19.90;;;30.40;99.90;;;;;;4905207;29;20497;-87
2023/08/21 10:03:48;;;;;;;19.70;18.90;;;30.40;99.90;;;;;;4903653;29;21030;-86
2023/08/21 10:06:24;;;;;;;20.30;19.37;;;30.40;99.90;;;;;;4903902;29;20487;-88
2023/08/21 10:08:57;;;;;;;20.67;19.73;;;30.30;99.90;;;;;;4901696;29;20509;-88
2023/08/21 10:11:26;;;;;;;21.00;20.10;;;30.30;99.90;;;;;;4904887;29;20462;-86
2023/08/21 10:13:57;;;;;;;20.10;19.30;;;30.30;99.90;;;;;;4904300;29;20467;-89
2023/08/21 10:16:30;;;;;;;19.50;18.70;;;30.40;99.90;;;;;;4905614;29;20467;-86
2023/08/21 10:19:11;;;;;;;21.73;20.57;;;30.40;99.90;;;;;;4907922;29;20471;-87
2023/08/21 10:21:42;;;;;;;20.17;19.23;;;30.40;99.90;;;;;;4910583;29;20497;-87
2023/08/21 10:24:11;;;;;;;20.27;19.37;;;30.30;99.90;;;;;;4903494;29;20763;-87
2023/08/21 10:26:45;;;;;;;20.70;19.67;;;30.40;99.90;;;;;;4904645;29;20849;-86
2023/08/21 10:29:17;;;;;;;21.33;20.10;;;30.40;99.90;;;;;;4909669;29;20999;-86
2023/08/21 10:32:00;;;;;;;20.10;19.20;;;30.50;99.90;;;;;;4904020;29;20463;-87
2023/08/21 10:34:37;;;;;;;20.77;19.77;;;30.50;99.90;;;;;;4904728;29;20473;-86
2023/08/21 10:37:17;;;;;;;20.60;19.40;;;30.60;99.90;;;;;;4908176;29;20457;-86
2023/08/21 10:40:00;;;;;;;20.40;19.60;;;30.70;99.90;;;;;;4904320;29;20457;-86
2023/08/21 10:42:42;;;;;;;20.70;19.60;;;30.60;99.90;;;;;;4910669;29;20465;-86
2023/08/21 10:45:14;;;;;;;20.87;19.77;;;30.60;99.90;;;;;;4903924;29;20455;-89
2023/08/21 10:47:47;;;;;;;21.20;20.10;;;30.60;99.90;;;;;;4904693;29;20473;-87
2023/08/21 10:50:17;;;;;;;21.47;20.37;;;30.50;99.90;;;;;;4904304;29;20462;-87
2023/08/21 10:52:45;;;;;;;21.90;20.70;;;30.50;99.90;;;;;;4905814;29;20469;-86
2023/08/21 10:55:15;;;;;;;21.33;20.33;;;30.50;99.90;;;;;;4912883;29;20465;-88
2023/08/21 10:57:50;;;;;;;21.23;20.30;;;30.50;99.90;;;;;;4916153;29;20486;-85
2023/08/21 11:00:20;;;;;;;21.40;20.40;;;30.50;99.90;;;;;;4910971;29;20584;-86
2023/08/21 11:02:54;;;;;;;19.77;18.90;;;30.50;99.90;;;;;;4911330;29;20481;-86
2023/08/21 11:05:24;;;;;;;21.80;20.70;;;30.60;99.90;;;;;;4911823;29;20454;-88
2023/08/21 11:07:56;;;;;;;20.53;19.50;;;30.60;99.90;;;;;;4910246;29;20493;-88
2023/08/21 11:10:25;;;;;;;20.93;19.93;;;30.60;99.90;;;;;;4912648;29;20462;-86
2023/08/21 11:12:56;;;;;;;21.80;20.50;;;30.80;99.90;;;;;;4911402;29;20456;-86
2023/08/21 11:15:27;;;;;;;21.47;20.57;;;30.80;99.90;;;;;;4908066;29;20457;-86
2023/08/21 11:18:00;;;;;;;21.00;19.90;;;30.80;99.90;;;;;;4925795;29;20482;-86
2023/08/21 11:20:34;;;;;;;22.07;21.00;;;30.90;99.90;;;;;;4911191;29;20481;-86
2023/08/21 11:23:06;;;;;;;20.80;19.90;;;30.80;99.90;;;;;;4911632;29;20877;-88
2023/08/21 11:25:38;;;;;;;20.73;19.63;;;30.70;99.90;;;;;;4911423;29;21004;-86
2023/08/21 11:28:08;;;;;;;21.90;20.50;;;30.70;99.90;;;;;;4924412;29;20491;-89
2023/08/21 11:30:40;;;;;;;21.80;20.70;;;30.70;99.90;;;;;;4916327;29;20437;-87
2023/08/21 11:33:15;;;;;;;21.27;20.27;;;30.60;99.90;;;;;;4910283;29;20468;-87
2023/08/21 11:35:51;;;;;;;21.80;20.70;;;30.60;99.90;;;;;;4924913;29;20462;-84
2023/08/21 11:38:21;;;;;;;21.73;20.50;;;30.60;99.90;;;;;;4908831;29;20485;-86
2023/08/21 11:40:57;;;;;;;21.77;20.60;;;30.70;99.90;;;;;;4911557;29;20484;-89
2023/08/21 11:43:37;;;;;;;21.23;20.07;;;30.70;99.90;;;;;;4913950;29;20525;-86
2023/08/21 11:46:11;;;;;;;20.80;19.90;;;30.60;99.90;;;;;;4908490;29;20775;-86
2023/08/21 11:48:45;;;;;;;21.00;20.00;;;30.70;99.90;;;;;;4912630;29;20477;-87
2023/08/21 11:51:18;;;;;;;20.90;19.80;;;30.70;99.90;;;;;;4911251;29;20443;-86
2023/08/21 11:53:49;;;;;;;20.63;19.70;;;30.80;99.90;;;;;;4914364;29;20441;-85
2023/08/21 11:56:23;;;;;;;21.60;20.40;;;30.70;99.90;;;;;;4911888;29;20476;-87
2023/08/21 11:58:55;;;;;;;19.93;19.13;;;30.70;99.90;;;;;;4913013;29;21013;-88
2023/08/21 12:01:24;;;;;;;21.23;20.30;;;30.70;99.90;;;;;;4910603;29;20964;-89
2023/08/21 12:03:58;;;;;;;22.00;20.87;;;30.60;99.90;;;;;;4911980;29;20568;-86
2023/08/21 12:06:32;;;;;;;21.50;20.60;;;30.60;99.90;;;;;;4905153;29;20477;-86
2023/08/21 12:09:04;;;;;;;20.97;20.00;;;30.70;99.90;;;;;;4908923;29;20478;-88
2023/08/21 12:11:34;;;;;;;21.57;20.50;;;30.70;99.90;;;;;;4904613;29;20465;-89
2023/08/21 12:14:06;;;;;;;20.93;19.73;;;30.70;99.90;;;;;;4903462;29;20458;-86
2023/08/21 12:16:38;;;;;;;21.83;20.30;;;30.70;99.90;;;;;;4912136;29;20983;-86
2023/08/21 12:19:11;;;;;;;21.17;19.97;;;30.60;99.90;;;;;;4905586;29;20474;-88
2023/08/21 12:21:47;;;;;;;22.00;20.73;;;30.60;99.90;;;;;;4908139;29;20489;-86
2023/08/21 12:24:18;;;;;;;19.77;18.90;;;30.60;99.90;;;;;;4906098;29;20462;-86
2023/08/21 12:26:50;;;;;;;21.07;20.00;;;30.60;99.90;;;;;;4906085;29;20490;-86
2023/08/21 12:29:22;;;;;;;20.60;19.60;;;30.60;99.90;;;;;;4906096;29;20546;-88
2023/08/21 12:31:55;;;;;;;20.60;19.63;;;30.60;99.90;;;;;;4905261;29;20454;-85
2023/08/21 12:34:32;;;;;;;20.67;19.57;;;30.60;99.90;;;;;;4904691;29;20466;-86
2023/08/21 12:37:03;;;;;;;20.57;19.57;;;30.60;99.90;;;;;;4906748;29;20458;-88
2023/08/21 12:39:35;;;;;;;19.87;19.07;;;30.70;99.90;;;;;;4905807;29;20584;-88
2023/08/21 12:42:08;;;;;;;22.33;21.13;;;30.70;99.90;;;;;;4904526;29;20477;-86
2023/08/21 12:44:38;;;;;;;20.10;18.93;;;30.70;99.90;;;;;;4904360;29;20473;-87
2023/08/21 12:47:07;;;;;;;19.97;19.17;;;30.60;99.90;;;;;;4905447;29;20879;-87
2023/08/21 12:49:40;;;;;;;20.77;19.87;;;30.60;99.90;;;;;;4911878;29;20470;-85
2023/08/21 12:52:12;;;;;;;20.70;19.60;;;30.60;99.90;;;;;;4906191;29;20999;-87
2023/08/21 12:54:43;;;;;;;20.20;19.30;;;30.50;99.90;;;;;;4906242;29;20466;-88
2023/08/21 12:57:13;;;;;;;20.03;19.03;;;30.60;99.90;;;;;;4920484;29;20470;-87
2023/08/21 12:59:48;;;;;;;20.87;19.73;;;30.60;99.90;;;;;;4904095;29;20494;-86